createdAt,value
2022-08-26T00:00:21.397Z,97324.94
2022-08-26T00:02:49.747Z,97325.38
2022-08-26T00:05:18.261Z,97329.63
2022-08-26T00:07:47.339Z,97330.94
2022-08-26T00:10:16.088Z,97331.16
2022-08-26T00:12:46.020Z,97333.25
2022-08-26T00:15:17.539Z,97329.16
2022-08-26T00:17:48.104Z,97322.09
2022-08-26T00:20:20.579Z,97319.03
2022-08-26T00:22:49.330Z,97319.88
2022-08-26T00:25:18.191Z,97325.50
2022-08-26T00:27:47.782Z,97322.19
2022-08-26T00:30:24.914Z,97322.66
2022-08-26T00:32:57.450Z,97321.81
2022-08-26T00:35:28.094Z,97333.69
2022-08-26T00:37:57.120Z,97322.06
2022-08-26T00:40:32.815Z,97327.94
2022-08-26T00:43:02.327Z,97322.75
2022-08-26T00:45:44.406Z,97326.75
2022-08-26T00:48:18.127Z,97325.56
2022-08-26T00:50:52.714Z,97318.50
2022-08-26T00:53:26.021Z,97314.16
2022-08-26T00:56:02.783Z,97313.56
2022-08-26T00:58:33.987Z,97314.63
2022-08-26T01:01:03.301Z,97322.13
2022-08-26T01:03:36.220Z,97322.81
2022-08-26T01:06:05.334Z,97323.00
2022-08-26T01:08:41.415Z,97314.34
2022-08-26T01:11:10.177Z,97314.56
2022-08-26T01:13:39.479Z,97315.03
2022-08-26T01:16:12.502Z,97319.81
2022-08-26T01:18:45.002Z,97317.34
2022-08-26T01:21:21.017Z,97316.78
2022-08-26T01:23:57.479Z,97313.47
2022-08-26T01:26:29.741Z,97319.31
2022-08-26T01:29:01.432Z,97316.03
2022-08-26T01:31:36.742Z,97318.94
2022-08-26T01:34:12.188Z,97321.66
2022-08-26T01:36:41.500Z,97321.41
2022-08-26T01:39:12.700Z,97322.72
2022-08-26T01:41:44.073Z,97312.75
2022-08-26T01:44:21.145Z,97316.72
2022-08-26T01:46:51.805Z,97308.03
2022-08-26T01:49:21.387Z,97307.19
2022-08-26T01:51:54.231Z,97303.09
2022-08-26T01:54:24.787Z,97302.25
2022-08-26T01:56:53.773Z,97304.13
2022-08-26T01:59:24.489Z,97313.28
2022-08-26T02:01:53.207Z,97307.03
2022-08-26T02:04:27.618Z,97305.41
2022-08-26T02:06:57.916Z,97311.03
2022-08-26T02:09:29.216Z,97307.72
2022-08-26T02:12:01.447Z,97315.84
2022-08-26T02:17:07.282Z,97320.88
2022-08-26T02:19:41.052Z,97324.84
2022-08-26T02:22:16.186Z,97317.19
2022-08-26T02:24:52.701Z,97314.72
2022-08-26T02:27:24.862Z,97321.19
2022-08-26T02:29:58.982Z,97319.53
2022-08-26T02:32:27.403Z,97314.38
2022-08-26T02:34:55.850Z,97311.06
2022-08-26T02:37:24.253Z,97307.53
2022-08-26T02:39:55.174Z,97306.72
2022-08-26T02:42:23.604Z,97315.41
2022-08-26T02:44:53.306Z,97316.47
2022-08-26T02:47:21.674Z,97311.06
2022-08-26T02:49:53.714Z,97304.81
2022-08-26T02:52:22.103Z,97304.03
2022-08-26T02:54:50.467Z,97308.59
2022-08-26T02:57:20.630Z,97310.69
2022-08-26T02:59:50.744Z,97308.81
2022-08-26T03:02:19.161Z,97312.34
2022-08-26T03:04:58.062Z,97309.03
2022-08-26T03:07:30.862Z,97309.88
2022-08-26T03:09:59.458Z,97304.94
2022-08-26T03:12:29.213Z,97305.50
2022-08-26T03:14:58.337Z,97305.50
2022-08-26T03:17:26.921Z,97304.72
2022-08-26T03:19:57.204Z,97303.66
2022-08-26T03:22:27.121Z,97302.00
2022-08-26T03:24:55.726Z,97302.81
2022-08-26T03:27:24.044Z,97292.28
2022-08-26T03:30:11.735Z,97291.44
2022-08-26T03:32:41.367Z,97292.72
2022-08-26T03:35:10.637Z,97296.22
2022-08-26T03:37:39.806Z,97297.50
2022-08-26T03:40:11.617Z,97297.28
2022-08-26T03:42:41.389Z,97288.34
2022-08-26T03:45:16.747Z,97286.50
2022-08-26T03:47:45.783Z,97290.03
2022-08-26T03:50:22.644Z,97284.03
2022-08-26T03:52:51.782Z,97281.31
2022-08-26T03:55:23.599Z,97281.31
2022-08-26T03:57:52.177Z,97293.19
2022-08-26T04:00:22.735Z,97288.81
2022-08-26T04:02:53.264Z,97291.50
2022-08-26T04:05:24.145Z,97291.50
2022-08-26T04:07:53.033Z,97286.94
2022-08-26T04:10:28.574Z,97287.78
2022-08-26T04:13:05.940Z,97285.09
2022-08-26T04:15:35.692Z,97283.19
2022-08-26T04:18:04.650Z,97283.19
2022-08-26T04:20:33.045Z,97283.78
2022-08-26T04:23:01.465Z,97291.66
2022-08-26T04:25:30.138Z,97290.03
2022-08-26T04:27:58.495Z,97290.03
2022-08-26T04:30:26.888Z,97285.66
2022-08-26T04:32:56.609Z,97288.34
2022-08-26T04:35:26.330Z,97292.13
2022-08-26T04:37:56.166Z,97287.56
2022-08-26T04:40:27.589Z,97287.78
2022-08-26T04:42:56.866Z,97292.34
2022-08-26T04:45:26.310Z,97286.34
2022-08-26T04:47:58.254Z,97286.34
2022-08-26T04:50:27.022Z,97296.28
2022-08-26T04:52:56.405Z,97294.22
2022-08-26T04:55:39.720Z,97299.59
2022-08-26T04:58:11.181Z,97297.97
2022-08-26T05:00:40.339Z,97310.41
2022-08-26T05:03:10.775Z,97311.22
2022-08-26T05:05:41.304Z,97308.53
2022-08-26T05:08:11.235Z,97311.00
2022-08-26T05:10:43.665Z,97301.28
2022-08-26T05:13:15.111Z,97309.16
2022-08-26T05:15:45.281Z,97311.63
2022-08-26T05:18:17.460Z,97309.72
2022-08-26T05:20:51.527Z,97317.59
2022-08-26T05:23:23.569Z,97309.03
2022-08-26T05:25:58.995Z,97325.00
2022-08-26T05:28:29.633Z,97320.22
2022-08-26T05:30:58.362Z,97318.09
2022-08-26T05:33:28.905Z,97320.78
2022-08-26T05:35:57.214Z,97317.88
2022-08-26T05:38:25.579Z,97317.41
2022-08-26T05:40:58.717Z,97319.66
2022-08-26T05:43:27.889Z,97316.75
2022-08-26T05:45:56.403Z,97319.81
2022-08-26T05:48:25.130Z,97320.44
2022-08-26T05:50:55.145Z,97316.44
2022-08-26T05:53:26.088Z,97319.50
2022-08-26T05:55:56.201Z,97316.59
2022-08-26T05:58:25.316Z,97323.16
2022-08-26T06:01:03.545Z,97320.25
2022-08-26T06:03:34.758Z,97324.13
2022-08-26T06:06:07.524Z,97323.66
2022-08-26T06:08:37.767Z,97318.88
2022-08-26T06:11:10.751Z,97326.75
2022-08-26T06:13:47.909Z,97313.00
2022-08-26T06:16:19.463Z,97325.81
2022-08-26T06:18:49.200Z,97319.13
2022-08-26T06:21:21.405Z,97325.72
2022-08-26T06:24:10.885Z,97319.31
2022-08-26T06:26:42.961Z,97326.13
2022-08-26T06:29:15.467Z,97327.53
2022-08-26T06:31:54.032Z,97324.13
2022-08-26T06:34:29.636Z,97320.16
2022-08-26T06:37:03.550Z,97325.13
2022-08-26T06:39:32.704Z,97327.13
2022-08-26T06:42:03.056Z,97323.97
2022-08-26T06:44:32.377Z,97325.38
2022-08-26T06:47:00.873Z,97324.06
2022-08-26T06:49:29.439Z,97326.31
2022-08-26T06:51:59.751Z,97326.69
2022-08-26T06:54:30.248Z,97327.25
2022-08-26T06:56:59.024Z,97332.41
2022-08-26T06:59:27.759Z,97333.84
2022-08-26T07:01:56.541Z,97332.31
2022-08-26T07:04:25.060Z,97337.28
2022-08-26T07:06:57.025Z,97330.34
2022-08-26T07:09:33.134Z,97335.50
2022-08-26T07:12:01.833Z,97337.50
2022-08-26T07:14:31.746Z,97336.00
2022-08-26T07:17:01.374Z,97326.38
2022-08-26T07:19:31.392Z,97334.63
2022-08-26T07:22:01.974Z,97339.34
2022-08-26T07:24:32.534Z,97338.66
2022-08-26T07:27:02.735Z,97333.56
2022-08-26T07:29:32.367Z,97341.34
2022-08-26T07:32:00.808Z,97347.91
2022-08-26T07:34:29.358Z,97343.19
2022-08-26T07:36:58.727Z,97339.56
2022-08-26T07:39:27.943Z,97337.81
2022-08-26T07:42:01.372Z,97328.16
2022-08-26T07:44:32.292Z,97336.94
2022-08-26T07:47:00.865Z,97329.78
2022-08-26T07:49:29.682Z,97333.69
2022-08-26T07:51:58.177Z,97336.00
2022-08-26T07:54:27.318Z,97336.94
2022-08-26T07:56:57.620Z,97334.09
2022-08-26T07:59:26.415Z,97327.38
2022-08-26T08:01:54.794Z,97324.53
2022-08-26T08:04:26.544Z,97331.69
2022-08-26T08:06:55.499Z,97335.06
2022-08-26T08:09:24.599Z,97330.59
2022-08-26T08:11:54.051Z,97338.81
2022-08-26T08:14:23.788Z,97332.44
2022-08-26T08:16:55.057Z,97336.66
2022-08-26T08:19:24.400Z,97327.00
2022-08-26T08:22:17.085Z,97332.50
2022-08-26T08:24:49.886Z,97324.22
2022-08-26T08:27:23.881Z,97325.38
2022-08-26T08:29:55.230Z,97320.84
2022-08-26T08:32:24.439Z,97326.97
2022-08-26T08:34:52.947Z,97325.38
2022-08-26T08:37:21.359Z,97324.16
2022-08-26T08:39:50.176Z,97328.84
2022-08-26T08:42:39.736Z,97324.56
2022-08-26T08:45:15.410Z,97322.81
2022-08-26T08:47:54.778Z,97328.06
2022-08-26T08:50:28.925Z,97319.75
2022-08-26T08:53:15.128Z,97321.00
2022-08-26T08:56:00.101Z,97321.63
2022-08-26T08:58:50.471Z,97322.84
2022-08-26T09:01:31.586Z,97309.94
2022-08-26T09:04:23.212Z,97312.22
2022-08-26T09:09:31.924Z,97310.88
2022-08-26T09:12:02.225Z,97309.94
2022-08-26T09:14:32.710Z,97310.31
2022-08-26T09:17:09.875Z,97315.31
2022-08-26T09:19:44.597Z,97316.19
2022-08-26T09:22:29.442Z,97311.13
2022-08-26T09:24:57.820Z,97304.44
2022-08-26T09:27:46.327Z,97310.75
2022-08-26T09:30:34.426Z,97304.28
2022-08-26T09:33:10.874Z,97301.38
2022-08-26T09:35:43.861Z,97304.97
2022-08-26T09:38:26.677Z,97301.47
2022-08-26T09:40:59.765Z,97296.91
2022-08-26T09:43:29.116Z,97293.66
2022-08-26T09:46:15.167Z,97291.53
2022-08-26T09:48:45.041Z,97289.91
2022-08-26T09:51:30.723Z,97293.47
2022-08-26T09:54:02.224Z,97284.53
2022-08-26T09:56:34.291Z,97284.63
2022-08-26T09:59:03.981Z,97280.03
2022-08-26T10:01:40.195Z,97275.72
2022-08-26T10:04:14.026Z,97268.69
2022-08-26T10:06:46.240Z,97262.22
2022-08-26T10:09:19.510Z,97255.97
2022-08-26T10:11:53.536Z,97258.47
2022-08-26T10:14:27.553Z,97249.25
2022-08-26T10:17:03.552Z,97253.41
2022-08-26T10:19:57.078Z,97249.88
2022-08-26T10:22:33.472Z,97247.47
2022-08-26T10:25:04.961Z,97248.59
2022-08-26T10:27:51.206Z,97253.25
2022-08-26T10:30:25.092Z,97243.47
2022-08-26T10:32:58.829Z,97244.59
2022-08-26T10:35:29.488Z,97242.97
2022-08-26T10:38:03.954Z,97241.09
2022-08-26T10:40:46.178Z,97243.84
2022-08-26T10:43:23.534Z,97235.94
2022-08-26T10:45:59.937Z,97231.38
2022-08-26T10:48:37.368Z,97225.94
2022-08-26T10:51:08.687Z,97217.88
2022-08-26T10:53:51.412Z,97227.16
2022-08-26T10:56:38.125Z,97226.41
2022-08-26T10:59:16.036Z,97213.88
2022-08-26T11:01:52.624Z,97220.72
2022-08-26T11:04:40.868Z,97223.44
2022-08-26T11:07:41.908Z,97220.47
2022-08-26T11:10:28.145Z,97214.44
2022-08-26T11:13:00.190Z,97216.09
2022-08-26T11:16:10.804Z,97213.66
2022-08-26T11:18:46.994Z,97214.44
2022-08-26T11:22:06.065Z,97215.56
2022-08-26T11:25:07.610Z,97212.81
2022-08-26T11:28:05.229Z,97208.47
2022-08-26T11:30:57.011Z,97199.44
2022-08-26T11:34:00.819Z,97205.44
2022-08-26T11:37:05.061Z,97209.53
2022-08-26T11:39:54.077Z,97205.97
2022-08-26T11:42:34.341Z,97201.63
2022-08-26T11:45:20.815Z,97202.69
2022-08-26T11:47:49.370Z,97205.97
2022-08-26T11:50:21.486Z,97196.97
2022-08-26T11:52:55.405Z,97191.81
2022-08-26T11:55:25.278Z,97191.25
2022-08-26T11:57:57.690Z,97178.44
2022-08-26T12:00:31.446Z,97184.72
2022-08-26T12:03:07.779Z,97182.25
2022-08-26T12:05:44.307Z,97178.97
2022-08-26T12:08:16.573Z,97175.19
2022-08-26T12:10:46.553Z,97180.63
2022-08-26T12:13:24.044Z,97175.97
2022-08-26T12:15:57.062Z,97180.09
2022-08-26T12:18:28.879Z,97179.25
2022-08-26T12:21:00.980Z,97172.44
2022-08-26T12:23:46.723Z,97181.16
2022-08-26T12:26:24.588Z,97179.50
2022-08-26T12:28:58.002Z,97179.53
2022-08-26T12:31:35.454Z,97187.16
2022-08-26T12:34:07.221Z,97182.75
2022-08-26T12:36:50.904Z,97187.59
2022-08-26T12:39:28.488Z,97183.22
2022-08-26T12:42:00.084Z,97176.09
2022-08-26T12:44:54.054Z,97174.91
2022-08-26T12:47:42.052Z,97171.06
2022-08-26T12:50:20.562Z,97172.38
2022-08-26T12:53:01.089Z,97166.31
2022-08-26T12:55:41.401Z,97152.06
2022-08-26T12:58:24.504Z,97145.75
2022-08-26T13:00:55.233Z,97145.16
2022-08-26T13:03:44.509Z,97154.16
2022-08-26T13:06:18.105Z,97155.25
2022-08-26T13:08:48.430Z,97155.84
2022-08-26T13:11:21.344Z,97167.34
2022-08-26T13:13:53.415Z,97153.13
2022-08-26T13:16:23.818Z,97162.72
2022-08-26T13:18:55.669Z,97159.44
2022-08-26T13:21:26.999Z,97162.47
2022-08-26T13:23:55.961Z,97167.41
2022-08-26T13:26:24.308Z,97170.94
2022-08-26T13:29:01.640Z,97169.31
2022-08-26T13:31:32.525Z,97158.09
2022-08-26T13:34:02.552Z,97148.28
2022-08-26T13:36:31.418Z,97150.44
2022-08-26T13:39:00.482Z,97152.31
2022-08-26T13:41:29.871Z,97159.41
2022-08-26T13:44:00.094Z,97166.78
2022-08-26T13:46:29.017Z,97174.72
2022-08-26T13:48:58.563Z,97176.09
2022-08-26T13:51:28.448Z,97178.88
2022-08-26T13:53:57.385Z,97176.75
2022-08-26T13:56:29.373Z,97174.56
2022-08-26T13:59:01.179Z,97166.72
2022-08-26T14:01:31.719Z,97171.66
2022-08-26T14:04:00.075Z,97173.59
2022-08-26T14:06:28.739Z,97156.13
2022-08-26T14:08:57.062Z,97150.09
2022-08-26T14:11:25.773Z,97148.19
2022-08-26T14:13:54.222Z,97150.94
2022-08-26T14:16:31.512Z,97147.38
2022-08-26T14:19:01.321Z,97138.13
2022-08-26T14:21:32.613Z,97142.75
2022-08-26T14:24:01.188Z,97128.81
2022-08-26T14:26:30.184Z,97129.34
2022-08-26T14:28:59.735Z,97133.97
2022-08-26T14:31:31.738Z,97132.59
2022-08-26T14:34:04.794Z,97139.38
2022-08-26T14:36:33.890Z,97133.59
2022-08-26T14:39:06.421Z,97132.16
2022-08-26T14:41:37.120Z,97129.16
2022-08-26T14:44:09.968Z,97126.41
2022-08-26T14:46:46.532Z,97128.06
2022-08-26T14:49:16.055Z,97119.81
2022-08-26T14:51:44.456Z,97122.56
2022-08-26T14:54:13.295Z,97120.69
2022-08-26T14:56:48.531Z,97116.84
2022-08-26T14:59:20.748Z,97119.91
2022-08-26T15:01:50.998Z,97111.16
2022-08-26T15:04:19.918Z,97107.38
2022-08-26T15:06:48.629Z,97103.56
2022-08-26T15:09:17.252Z,97101.69
2022-08-26T15:11:46.428Z,97099.81
2022-08-26T15:14:19.830Z,97105.00
2022-08-26T15:16:51.262Z,97108.06
2022-08-26T15:19:20.357Z,97108.09
2022-08-26T15:21:48.877Z,97106.19
2022-08-26T15:24:21.554Z,97110.59
2022-08-26T15:26:50.261Z,97098.00
2022-08-26T15:29:18.813Z,97095.53
2022-08-26T15:31:49.591Z,97090.34
2022-08-26T15:34:18.811Z,97087.34
2022-08-26T15:36:49.304Z,97092.78
2022-08-26T15:39:18.837Z,97085.72
2022-08-26T15:41:47.970Z,97080.53
2022-08-26T15:44:18.419Z,97078.34
2022-08-26T15:46:50.073Z,97066.06
2022-08-26T15:49:19.019Z,97061.94
2022-08-26T15:51:50.317Z,97059.50
2022-08-26T15:54:21.770Z,97060.88
2022-08-26T15:56:53.027Z,97062.22
2022-08-26T15:59:23.662Z,97055.13
2022-08-26T16:01:53.777Z,97053.47
2022-08-26T16:04:22.428Z,97040.63
2022-08-26T16:06:52.225Z,97038.19
2022-08-26T16:09:24.256Z,97043.38
2022-08-26T16:11:53.220Z,97042.56
2022-08-26T16:14:21.886Z,97028.16
2022-08-26T16:16:50.516Z,97031.44
2022-08-26T16:19:21.044Z,97030.94
2022-08-26T16:21:50.777Z,97044.59
2022-08-26T16:24:24.845Z,97042.16
2022-08-26T16:26:55.998Z,97048.75
2022-08-26T16:29:24.588Z,97045.50
2022-08-26T16:31:54.540Z,97054.81
2022-08-26T16:34:24.559Z,97054.00
2022-08-26T16:36:53.223Z,97052.38
2022-08-26T16:39:21.614Z,97054.03
2022-08-26T16:41:50.503Z,97057.03
2022-08-26T16:44:19.398Z,97056.25
2022-08-26T16:46:48.040Z,97054.06
2022-08-26T16:49:16.520Z,97059.53
2022-08-26T16:51:46.819Z,97062.56
2022-08-26T16:54:15.243Z,97058.72
2022-08-26T16:56:43.663Z,97052.44
2022-08-26T16:59:12.747Z,97058.19
2022-08-26T17:01:41.311Z,97060.91
2022-08-26T17:04:09.749Z,97053.00
2022-08-26T17:06:38.300Z,97050.28
2022-08-26T17:09:08.212Z,97046.72
2022-08-26T17:11:36.951Z,97053.81
2022-08-26T17:14:05.803Z,97051.38
2022-08-26T17:16:34.245Z,97057.63
2022-08-26T17:19:04.533Z,97063.94
2022-08-26T17:21:34.361Z,97057.88
2022-08-26T17:24:03.216Z,97058.69
2022-08-26T17:26:33.350Z,97058.97
2022-08-26T17:29:01.828Z,97062.78
2022-08-26T17:31:30.213Z,97053.75
2022-08-26T17:33:58.886Z,97059.47
2022-08-26T17:36:28.498Z,97049.66
2022-08-26T17:38:58.589Z,97060.00
2022-08-26T17:41:28.004Z,97055.91
2022-08-26T17:43:57.820Z,97058.81
2022-08-26T17:46:26.657Z,97064.78
2022-08-26T17:48:55.411Z,97074.00
2022-08-26T17:51:24.017Z,97076.44
2022-08-26T17:53:53.118Z,97081.31
2022-08-26T17:56:25.510Z,97085.34
2022-08-26T17:58:56.477Z,97088.28
2022-08-26T18:01:28.724Z,97093.16
2022-08-26T18:04:00.474Z,97102.06
2022-08-26T18:06:31.389Z,97099.56
2022-08-26T18:09:00.703Z,97102.28
2022-08-26T18:11:31.970Z,97097.88
2022-08-26T18:14:00.726Z,97109.81
2022-08-26T18:16:31.688Z,97103.78
2022-08-26T18:19:00.938Z,97106.72
2022-08-26T18:21:29.608Z,97115.66
2022-08-26T18:23:58.510Z,97118.56
2022-08-26T18:26:31.190Z,97130.47
2022-08-26T18:28:59.911Z,97138.56
2022-08-26T18:31:30.731Z,97147.75
2022-08-26T18:34:01.325Z,97157.50
2022-08-26T18:36:33.467Z,97163.97
2022-08-26T18:39:03.899Z,97172.88
2022-08-26T18:41:35.635Z,97167.38
2022-08-26T18:44:04.704Z,97175.22
2022-08-26T18:46:34.612Z,97177.06
2022-08-26T18:49:03.036Z,97167.78
2022-08-26T18:51:34.121Z,97166.63
2022-08-26T18:54:06.338Z,97167.41
2022-08-26T18:56:36.571Z,97165.44
2022-08-26T18:59:07.252Z,97164.56
2022-08-26T19:01:40.497Z,97162.84
2022-08-26T19:04:14.774Z,97164.44
2022-08-26T19:06:48.331Z,97170.63
2022-08-26T19:09:17.929Z,97164.63
2022-08-26T19:11:47.199Z,97175.19
2022-08-26T19:14:18.387Z,97172.97
2022-08-26T19:16:50.644Z,97170.75
2022-08-26T19:19:19.924Z,97168.56
2022-08-26T19:21:48.777Z,97178.25
2022-08-26T19:24:19.131Z,97172.53
2022-08-26T19:26:55.196Z,97172.19
2022-08-26T19:29:30.264Z,97172.16
2022-08-26T19:32:00.376Z,97181.59
2022-08-26T19:34:29.569Z,97181.28
2022-08-26T19:36:58.547Z,97192.38
2022-08-26T19:39:27.780Z,97195.59
2022-08-26T19:41:56.250Z,97196.31
2022-08-26T19:44:42.244Z,97203.28
2022-08-26T19:47:13.356Z,97211.34
2022-08-26T19:49:41.739Z,97210.78
2022-08-26T19:52:11.133Z,97202.31
2022-08-26T19:54:40.431Z,97202.78
2022-08-26T19:57:08.834Z,97197.56
2022-08-26T19:59:37.410Z,97193.44
2022-08-26T20:02:10.538Z,97185.78
2022-08-26T20:04:41.829Z,97183.03
2022-08-26T20:07:14.066Z,97176.47
2022-08-26T20:09:45.018Z,97171.78
2022-08-26T20:12:13.709Z,97174.66
2022-08-26T20:14:42.866Z,97170.22
2022-08-26T20:17:11.275Z,97176.72
2022-08-26T20:19:58.511Z,97183.88
2022-08-26T20:22:26.888Z,97178.97
2022-08-26T20:24:55.421Z,97178.41
2022-08-26T20:27:27.695Z,97179.94
2022-08-26T20:30:09.620Z,97182.34
2022-08-26T20:32:38.696Z,97182.56
2022-08-26T20:35:14.328Z,97181.19
2022-08-26T20:37:43.292Z,97181.91
2022-08-26T20:40:14.022Z,97186.75
2022-08-26T20:42:42.565Z,97187.25
2022-08-26T20:45:11.887Z,97191.25
2022-08-26T20:47:40.321Z,97190.91
2022-08-26T20:50:10.929Z,97187.88
2022-08-26T20:52:39.341Z,97188.59
2022-08-26T20:55:08.809Z,97189.31
2022-08-26T20:57:37.339Z,97184.38
2022-08-26T21:00:07.546Z,97179.69
2022-08-26T21:02:35.909Z,97181.25
2022-08-26T21:05:04.602Z,97188.19
2022-08-26T21:07:34.323Z,97193.25
2022-08-26T21:10:03.876Z,97195.41
2022-08-26T21:12:32.238Z,97191.50
2022-08-26T21:15:00.661Z,97193.06
2022-08-26T21:17:29.298Z,97197.09
2022-08-26T21:19:57.585Z,97190.25
2022-08-26T21:22:26.508Z,97193.44
2022-08-26T21:24:56.239Z,97187.69
2022-08-26T21:27:26.387Z,97174.41
2022-08-26T21:29:55.383Z,97176.75
2022-08-26T21:32:23.864Z,97172.06
2022-08-26T21:34:55.981Z,97162.81
2022-08-26T21:37:25.566Z,97166.78
2022-08-26T21:39:57.115Z,97167.50
2022-08-26T21:42:27.227Z,97162.59
2022-08-26T21:44:55.740Z,97168.50
2022-08-26T21:47:25.463Z,97169.19
2022-08-26T21:49:54.310Z,97170.72
2022-08-26T21:52:22.721Z,97176.59
2022-08-26T21:54:51.143Z,97181.41
2022-08-26T21:57:22.281Z,97181.88
2022-08-26T21:59:50.567Z,97188.34
2022-08-26T22:02:19.065Z,97188.81
2022-08-26T22:04:49.016Z,97184.72
2022-08-26T22:07:19.124Z,97192.44
2022-08-26T22:09:47.931Z,97190.22
2022-08-26T22:12:18.181Z,97187.19
2022-08-26T22:14:48.114Z,97185.75
2022-08-26T22:17:16.947Z,97190.59
2022-08-26T22:19:46.432Z,97186.47
2022-08-26T22:22:16.230Z,97193.19
2022-08-26T22:24:44.668Z,97178.03
2022-08-26T22:27:14.325Z,97178.50
2022-08-26T22:29:42.675Z,97178.72
2022-08-26T22:32:12.387Z,97182.75
2022-08-26T22:34:41.915Z,97176.75
2022-08-26T22:37:10.224Z,97169.09
2022-08-26T22:39:38.855Z,97166.63
2022-08-26T22:42:07.496Z,97162.53
2022-08-26T22:44:37.484Z,97157.38
2022-08-26T22:47:06.244Z,97158.41
2022-08-26T22:49:35.979Z,97165.94
2022-08-26T22:52:04.867Z,97166.41
2022-08-26T22:54:33.602Z,97170.13
2022-08-26T22:57:02.415Z,97171.44
2022-08-26T22:59:30.728Z,97172.75
2022-08-26T23:01:59.136Z,97171.31
2022-08-26T23:04:27.512Z,97171.53
2022-08-26T23:06:57.230Z,97174.25
2022-08-26T23:09:25.632Z,97173.03
2022-08-26T23:11:55.927Z,97172.22
2022-08-26T23:14:25.826Z,97173.28
2022-08-26T23:16:54.701Z,97171.88
2022-08-26T23:19:24.373Z,97174.22
2022-08-26T23:21:52.895Z,97182.31
2022-08-26T23:24:22.593Z,97181.75
2022-08-26T23:26:51.036Z,97190.88
2022-08-26T23:29:19.412Z,97180.53
2022-08-26T23:31:47.740Z,97171.88
2022-08-26T23:34:33.452Z,97169.63
2022-08-26T23:37:02.010Z,97175.50
2022-08-26T23:39:34.967Z,97181.13
2022-08-26T23:42:03.466Z,97190.25
2022-08-26T23:44:32.214Z,97200.25
2022-08-26T23:47:01.028Z,97204.22
2022-08-26T23:49:30.390Z,97209.84
2022-08-26T23:52:16.820Z,97215.25
2022-08-26T23:54:48.564Z,97217.59
2022-08-26T23:57:19.227Z,97211.59
2022-08-26T23:59:49.040Z,97204.78
